Time;durP1;ratioP1;P1;durP2;ratioP2;P2;SDS_P1;SDS_P2;PMS_P1;PMS_P2;Temp;Humidity;BMP_temperature;BMP_pressure;BME280_temperature;BME280_humidity;BME280_pressure;Samples;Min_cycle;Max_cycle;Signal;HPM_P1;HPM_P2
2022/05/19 00:01:04;;;;;;;5.47;1.90;;;;;;;9.02;69.07;99232.09;5437651;26;20122;-73
2022/05/19 00:03:34;;;;;;;4.35;1.77;;;;;;;9.17;68.19;99237.84;5416661;26;20051;-73
2022/05/19 00:06:02;;;;;;;5.53;1.83;;;;;;;9.38;68.54;99234.00;5417143;26;20043;-73
2022/05/19 00:08:30;;;;;;;4.97;1.92;;;;;;;9.20;68.92;99234.34;5437323;26;20063;-73
2022/05/19 00:10:59;;;;;;;6.47;1.98;;;;;;;9.07;69.17;99222.56;5437027;26;20055;-74
2022/05/19 00:13:28;;;;;;;6.68;2.03;;;;;;;8.94;69.96;99219.38;5437086;26;20121;-73
2022/05/19 00:15:56;;;;;;;5.40;2.00;;;;;;;9.13;69.18;99218.16;5417071;26;20118;-73
2022/05/19 00:18:23;;;;;;;6.22;1.90;;;;;;;9.31;68.19;99211.81;5436772;26;20397;-74
2022/05/19 00:20:50;;;;;;;5.82;2.12;;;;;;;9.44;67.40;99215.84;5437491;26;20058;-73
2022/05/19 00:23:17;;;;;;;4.35;1.90;;;;;;;9.44;67.64;99220.16;5432030;26;139690;-73
2022/05/19 00:25:45;;;;;;;6.87;1.80;;;;;;;9.51;67.30;99221.75;5416723;26;20053;-73
2022/05/19 00:28:12;;;;;;;4.60;1.70;;;;;;;9.16;68.76;99223.25;5416869;26;20081;-73
2022/05/19 00:30:40;;;;;;;5.87;1.87;;;;;;;9.46;67.31;99220.97;5436902;26;20114;-73
2022/05/19 00:33:08;;;;;;;4.28;1.73;;;;;;;9.03;68.71;99223.50;5437134;26;20414;-73
2022/05/19 00:35:40;;;;;;;4.95;2.00;;;;;;;9.12;68.71;99228.47;5417390;26;20070;-73
2022/05/19 00:38:07;;;;;;;5.68;2.00;;;;;;;8.39;70.93;99227.97;5436953;26;20059;-73
2022/05/19 00:40:34;;;;;;;6.53;2.20;;;;;;;8.94;69.66;99229.69;5437589;26;20090;-73
2022/05/19 00:43:02;;;;;;;5.05;2.17;;;;;;;8.36;71.88;99231.44;5437029;26;20459;-73
2022/05/19 00:45:38;;;;;;;4.87;1.90;;;;;;;8.18;73.04;99218.81;5436844;26;20047;-73
2022/05/19 00:48:13;;;;;;;4.43;2.10;;;;;;;8.22;72.51;99233.34;5416886;26;20063;-73
2022/05/19 00:50:49;;;;;;;5.37;2.05;;;;;;;8.29;72.42;99222.06;5417064;26;20133;-73
2022/05/19 00:53:38;;;;;;;6.85;1.98;;;;;;;8.27;72.96;99212.69;5436667;26;20406;-73
2022/05/19 00:56:11;;;;;;;6.32;1.98;;;;;;;8.27;73.10;99217.84;5437443;26;20113;-73
2022/05/19 00:58:42;;;;;;;5.70;2.28;;;;;;;8.27;73.17;99215.25;5416543;26;20066;-73
2022/05/19 01:01:09;;;;;;;6.07;2.08;;;;;;;8.17;73.09;99214.56;5416997;26;20063;-73
2022/05/19 01:03:41;;;;;;;4.68;1.92;;;;;;;8.06;73.11;99221.56;5437190;26;20389;-73
2022/05/19 01:06:15;;;;;;;6.25;2.15;;;;;;;7.96;73.94;99213.12;5416571;26;20485;-73
2022/05/19 01:08:48;;;;;;;4.57;1.75;;;;;;;8.22;73.11;99206.78;5416734;26;20085;-73
2022/05/19 01:11:16;;;;;;;5.15;1.92;;;;;;;8.57;70.43;99207.13;5417009;26;20094;-73
2022/05/19 01:13:43;;;;;;;4.93;1.90;;;;;;;8.70;69.20;99210.31;5397287;26;20122;-73
2022/05/19 01:16:10;;;;;;;5.12;2.10;;;;;;;8.89;68.08;99216.87;5437272;26;20095;-73
2022/05/19 01:18:38;;;;;;;7.00;2.17;;;;;;;8.82;67.86;99204.97;5437221;26;20078;-73
2022/05/19 01:21:09;;;;;;;7.53;2.30;;;;;;;8.78;67.90;99211.06;5436804;26;20488;-73
2022/05/19 01:24:11;;;;;;;4.87;2.00;;;;;;;8.47;68.64;99203.00;5437180;26;20055;-73
2022/05/19 01:26:43;;;;;;;5.60;1.83;;;;;;;8.43;69.06;99203.91;5436792;26;20094;-73
2022/05/19 01:29:12;;;;;;;5.87;1.70;;;;;;;8.34;69.64;99204.03;5436876;26;20110;-73
2022/05/19 01:32:02;;;;;;;6.60;2.92;;;;;;;8.65;68.17;99209.56;5437129;26;20347;-73
2022/05/19 01:34:31;;;;;;;5.87;2.37;;;;;;;9.09;66.36;99205.38;5416248;26;20061;-73
2022/05/19 01:36:59;;;;;;;3.67;1.75;;;;;;;9.09;66.73;99216.50;5437204;26;20433;-73
2022/05/19 01:39:30;;;;;;;8.48;1.92;;;;;;;8.88;67.04;99214.31;5436854;26;20126;-73
2022/05/19 01:42:10;;;;;;;6.93;2.03;;;;;;;8.41;69.72;99213.38;5436733;26;20130;-73
2022/05/19 01:44:46;;;;;;;6.47;1.85;;;;;;;7.99;70.80;99202.81;5437282;26;20102;-73
2022/05/19 01:47:29;;;;;;;5.53;2.15;;;;;;;8.09;70.76;99208.69;5437107;26;20119;-73
2022/05/19 01:50:10;;;;;;;5.68;1.92;;;;;;;7.83;72.28;99204.75;5416381;26;20078;-73
2022/05/19 01:52:45;;;;;;;7.10;2.00;;;;;;;8.16;70.94;99204.28;5437123;26;20074;-73
2022/05/19 01:55:27;;;;;;;6.25;2.10;;;;;;;8.24;70.71;99208.47;5416349;26;20067;-73
2022/05/19 01:58:31;;;;;;;5.45;2.22;;;;;;;7.82;72.05;99212.47;5437005;26;20048;-74
2022/05/19 02:01:00;;;;;;;5.72;2.10;;;;;;;8.13;71.52;99200.91;5437220;26;20059;-73
2022/05/19 02:03:39;;;;;;;8.13;2.20;;;;;;;8.26;71.54;99211.84;5416124;26;20055;-73
2022/05/19 02:06:40;;;;;;;7.55;2.00;;;;;;;7.91;72.81;99209.78;5416739;26;20051;-73
2022/05/19 02:09:12;;;;;;;5.20;1.90;;;;;;;7.84;73.07;99203.03;5436630;26;20062;-73
2022/05/19 02:11:43;;;;;;;5.50;2.00;;;;;;;8.03;72.36;99206.19;5437040;26;20110;-73
2022/05/19 02:14:13;;;;;;;6.35;2.05;;;;;;;8.22;71.28;99207.63;5416459;26;20062;-73
2022/05/19 02:16:40;;;;;;;4.75;1.85;;;;;;;8.20;70.41;99214.53;5416169;26;20110;-73
2022/05/19 02:19:09;;;;;;;7.43;2.35;;;;;;;8.59;69.56;99214.81;5397618;26;20047;-73
2022/05/19 02:21:36;;;;;;;4.93;1.75;;;;;;;8.63;68.93;99213.91;5416521;26;20066;-73
2022/05/19 02:24:03;;;;;;;4.45;1.98;;;;;;;8.69;68.45;99216.34;5436312;26;20113;-73
2022/05/19 02:26:36;;;;;;;7.22;2.05;;;;;;;8.44;69.94;99218.47;5416380;26;20110;-73
2022/05/19 02:29:17;;;;;;;7.35;1.80;;;;;;;8.48;69.97;99219.28;5416207;26;20095;-73
2022/05/19 02:31:44;;;;;;;5.15;1.75;;;;;;;8.63;67.97;99208.75;5416344;26;20114;-73
2022/05/19 02:34:11;;;;;;;6.32;2.03;;;;;;;8.66;67.22;99206.97;5436599;26;20417;-73
2022/05/19 02:36:39;;;;;;;6.20;1.80;;;;;;;8.71;68.00;99204.31;5437316;26;20098;-73
2022/05/19 02:39:07;;;;;;;6.40;2.00;;;;;;;8.40;69.16;99207.41;5437306;26;20113;-73
2022/05/19 02:41:34;;;;;;;6.62;2.10;;;;;;;7.99;70.36;99210.53;5437834;26;20113;-73
2022/05/19 02:44:01;;;;;;;6.65;1.85;;;;;;;7.99;70.61;99212.25;5437283;26;20071;-73
2022/05/19 02:46:28;;;;;;;;;;;;;;;7.93;70.99;99218.31;5438139;26;20051;-73
2022/05/19 02:48:57;;;;;;;8.43;2.30;;;;;;;8.06;69.84;99216.44;5437745;26;20333;-73
2022/05/19 02:51:24;;;;;;;9.73;2.00;;;;;;;8.02;69.79;99217.34;5417093;26;20118;-73
2022/05/19 02:53:51;;;;;;;5.18;2.00;;;;;;;8.07;68.54;99218.97;5437519;26;20529;-73
2022/05/19 02:56:18;;;;;;;;;;;;;;;8.02;69.12;99222.50;5438100;26;20142;-73
2022/05/19 02:58:45;;;;;;;7.75;2.10;;;;;;;8.27;68.40;99225.56;5437226;26;20311;-73
2022/05/19 03:01:12;;;;;;;6.75;2.05;;;;;;;8.01;69.00;99233.66;5437720;26;20517;-73
2022/05/19 03:03:38;;;;;;;;;;;;;;;7.95;69.13;99228.56;5437871;26;20073;-73
2022/05/19 03:06:05;;;;;;;4.53;1.77;;;;;;;7.74;69.18;99227.12;5437306;26;20083;-73
2022/05/19 03:08:32;;;;;;;;;;;;;;;8.21;67.89;99235.94;5437808;26;20102;-73
2022/05/19 03:10:59;;;;;;;8.73;2.58;;;;;;;8.09;67.94;99234.41;5437935;26;20026;-73
2022/05/19 03:13:26;;;;;;;5.55;2.10;;;;;;;7.81;69.07;99234.75;5416695;26;20114;-73
2022/05/19 03:15:53;;;;;;;5.18;2.00;;;;;;;7.39;70.65;99241.25;5437605;26;20102;-73
2022/05/19 03:18:20;;;;;;;6.10;1.83;;;;;;;7.98;68.95;99238.84;5437380;26;20054;-73
2022/05/19 03:20:47;;;;;;;6.78;1.70;;;;;;;8.00;69.03;99240.50;5437217;26;20092;-73
2022/05/19 03:23:14;;;;;;;5.62;1.75;;;;;;;8.46;67.04;99241.59;5437598;26;20079;-73
2022/05/19 03:25:41;;;;;;;3.95;1.80;;;;;;;7.62;70.42;99235.84;5437740;26;20107;-73
2022/05/19 03:28:12;;;;;;;8.80;1.90;;;;;;;7.39;71.42;99237.81;5437079;26;20095;-73
2022/05/19 03:30:39;;;;;;;6.40;1.80;;;;;;;7.70;69.80;99238.31;5437546;26;20107;-73
2022/05/19 03:33:06;;;;;;;;;;;;;;;7.76;69.60;99233.09;5437421;26;20122;-73
2022/05/19 03:35:33;;;;;;;5.75;1.87;;;;;;;7.86;69.49;99236.41;5417257;26;20284;-73
2022/05/19 03:38:00;;;;;;;11.85;2.08;;;;;;;8.18;68.41;99234.25;5437351;26;20063;-73
2022/05/19 03:40:27;;;;;;;5.85;1.90;;;;;;;8.64;66.01;99241.31;5437193;26;20075;-73
2022/05/19 03:42:53;;;;;;;8.20;2.20;;;;;;;8.81;65.38;99241.03;5437664;26;20126;-73
2022/05/19 03:45:20;;;;;;;4.37;1.80;;;;;;;8.58;67.38;99246.53;5437607;26;20055;-74
2022/05/19 03:47:47;;;;;;;6.75;2.05;;;;;;;8.64;66.44;99241.31;5436735;26;20110;-74
2022/05/19 03:50:15;;;;;;;6.30;1.70;;;;;;;9.12;65.72;99249.06;5437611;26;20419;-73
2022/05/19 03:52:42;;;;;;;5.15;1.60;;;;;;;9.80;63.34;99247.78;5437523;26;20075;-73
2022/05/19 03:55:13;;;;;;;4.25;1.52;;;;;;;10.62;59.82;99247.69;5436998;26;20051;-74
2022/05/19 03:57:41;;;;;;;6.15;2.05;;;;;;;11.41;56.23;99247.41;5437334;26;20050;-74
2022/05/19 04:00:10;;;;;;;5.80;1.70;;;;;;;11.82;54.15;99242.88;5417566;26;20063;-74
2022/05/19 04:02:37;;;;;;;7.60;1.50;;;;;;;12.22;52.18;99246.84;5436849;26;20352;-74
2022/05/19 04:05:05;;;;;;;4.93;1.60;;;;;;;12.88;50.20;99251.66;5437373;26;20460;-74
2022/05/19 04:07:32;;;;;;;5.60;1.70;;;;;;;13.55;48.27;99254.56;5437262;26;20106;-74
2022/05/19 04:09:59;;;;;;;4.43;1.62;;;;;;;14.10;47.13;99255.13;5437256;26;20055;-74
2022/05/19 04:12:26;;;;;;;3.85;1.20;;;;;;;14.93;44.93;99254.50;5437407;26;20113;-74
2022/05/19 04:14:53;;;;;;;7.87;1.70;;;;;;;15.23;43.80;99258.41;5437420;26;20097;-74
2022/05/19 04:17:21;;;;;;;3.67;1.40;;;;;;;15.50;42.80;99256.34;5436948;26;20070;-74
2022/05/19 04:19:48;;;;;;;4.15;1.55;;;;;;;15.57;43.10;99265.59;5437555;26;20058;-74
2022/05/19 04:22:15;;;;;;;9.27;2.10;;;;;;;16.31;41.38;99257.94;5436932;26;20366;-74
2022/05/19 04:24:42;;;;;;;5.35;1.40;;;;;;;17.08;40.51;99260.31;5437399;26;20107;-74
2022/05/19 04:27:11;;;;;;;5.87;1.40;;;;;;;17.48;38.73;99264.34;5437232;26;20095;-75
2022/05/19 04:29:38;;;;;;;4.28;1.50;;;;;;;17.87;38.86;99260.63;5436587;26;20095;-74
2022/05/19 04:32:05;;;;;;;5.00;1.23;;;;;;;18.51;38.36;99257.13;5437299;26;20058;-74
2022/05/19 04:34:32;;;;;;;3.37;1.10;;;;;;;19.41;36.46;99259.75;5437282;26;20043;-74
2022/05/19 04:36:59;;;;;;;7.25;1.70;;;;;;;19.74;36.12;99269.16;5437001;26;20094;-74
2022/05/19 04:39:26;;;;;;;3.15;1.40;;;;;;;20.21;34.38;99267.09;5437045;26;20059;-74
2022/05/19 04:41:53;;;;;;;4.15;1.20;;;;;;;20.84;33.69;99267.47;5437490;26;20455;-75
2022/05/19 04:44:20;;;;;;;2.05;1.02;;;;;;;21.61;32.98;99269.31;5436841;26;20093;-74
2022/05/19 04:46:47;;;;;;;4.57;1.40;;;;;;;22.35;32.04;99268.47;5437428;26;20044;-75
2022/05/19 04:49:15;;;;;;;3.58;1.20;;;;;;;23.18;30.55;99267.69;5437207;26;20055;-75
2022/05/19 04:51:42;;;;;;;9.00;1.55;;;;;;;24.04;29.40;99273.34;5437074;26;20078;-75
2022/05/19 04:54:09;;;;;;;5.30;1.30;;;;;;;24.65;28.29;99265.81;5437088;26;20100;-74
2022/05/19 04:56:36;;;;;;;4.00;1.37;;;;;;;25.06;27.49;99275.63;5437297;26;20402;-75
2022/05/19 04:59:04;;;;;;;4.70;1.27;;;;;;;25.18;27.46;99278.22;5436689;26;20055;-75
2022/05/19 05:01:31;;;;;;;4.97;1.50;;;;;;;25.67;27.80;99281.03;5437360;26;20058;-75
2022/05/19 05:03:59;;;;;;;8.20;1.50;;;;;;;26.48;26.83;99267.91;5437150;26;20133;-75
2022/05/19 05:06:26;;;;;;;4.00;1.45;;;;;;;27.16;25.94;99278.53;5436959;26;20428;-75
2022/05/19 05:08:53;;;;;;;3.75;1.37;;;;;;;27.53;25.13;99282.06;5437177;26;20114;-75
2022/05/19 05:11:20;;;;;;;2.83;1.20;;;;;;;26.97;25.10;99274.03;5436887;26;20110;-75
2022/05/19 05:13:47;;;;;;;3.25;1.10;;;;;;;26.41;25.72;99279.97;5437062;26;20130;-75
2022/05/19 05:16:14;;;;;;;1.48;0.95;;;;;;;27.18;25.17;99281.88;5437481;26;20066;-75
2022/05/19 05:18:41;;;;;;;2.80;1.02;;;;;;;27.42;25.31;99292.00;5436605;26;20075;-75
2022/05/19 05:21:11;;;;;;;1.75;1.17;;;;;;;26.72;25.07;99286.88;5437209;26;20110;-75
2022/05/19 05:23:38;;;;;;;3.30;1.10;;;;;;;26.76;24.86;99282.94;5437193;26;20465;-75
2022/05/19 05:26:06;;;;;;;2.35;1.17;;;;;;;26.89;24.98;99292.44;5436765;26;20405;-75
2022/05/19 05:28:34;;;;;;;3.60;1.15;;;;;;;26.95;24.64;99291.87;5436795;26;20075;-75
2022/05/19 05:31:01;;;;;;;3.53;1.20;;;;;;;26.91;24.53;99288.69;5437271;26;20069;-75
2022/05/19 05:33:28;;;;;;;2.10;1.10;;;;;;;26.78;24.69;99296.88;5436669;26;20065;-75
2022/05/19 05:35:56;;;;;;;4.12;1.25;;;;;;;25.46;25.12;99297.88;5416697;26;20047;-75
2022/05/19 05:38:23;;;;;;;5.03;1.25;;;;;;;25.72;24.57;99301.81;5437079;26;20063;-75
2022/05/19 05:40:50;;;;;;;3.60;1.30;;;;;;;25.76;24.59;99305.88;5436815;26;20092;-75
2022/05/19 05:43:21;;;;;;;2.90;1.10;;;;;;;25.97;23.89;99299.72;5436975;26;20067;-75
2022/05/19 05:45:49;;;;;;;1.98;1.00;;;;;;;25.77;24.04;99296.16;5437339;26;20047;-75
2022/05/19 05:48:17;;;;;;;6.07;1.50;;;;;;;25.63;23.75;99311.34;5436737;26;20405;-75
2022/05/19 05:50:44;;;;;;;3.78;1.42;;;;;;;25.53;23.11;99301.69;5437239;26;20110;-75
2022/05/19 05:53:11;;;;;;;5.22;1.80;;;;;;;25.69;23.84;99304.69;5416542;26;20118;-75
2022/05/19 05:55:41;;;;;;;5.37;1.37;;;;;;;24.94;23.57;99308.31;5436672;26;20047;-75
2022/05/19 05:58:10;;;;;;;5.00;1.30;;;;;;;24.74;23.03;99309.91;5416520;26;20130;-75
2022/05/19 06:00:38;;;;;;;5.05;1.40;;;;;;;24.32;23.44;99302.81;5416374;26;20062;-75
2022/05/19 06:03:05;;;;;;;3.53;1.25;;;;;;;24.40;24.19;99309.16;5416542;26;20073;-75
2022/05/19 06:05:32;;;;;;;3.60;1.25;;;;;;;24.36;24.06;99306.91;5416528;26;20054;-75
2022/05/19 06:07:59;;;;;;;4.55;1.33;;;;;;;24.68;24.11;99313.06;5436224;26;20070;-76
2022/05/19 06:10:26;;;;;;;6.37;1.40;;;;;;;24.33;23.95;99309.75;5436667;26;20074;-75
2022/05/19 06:12:53;;;;;;;6.78;1.52;;;;;;;24.13;24.58;99317.41;5436824;26;20317;-76
2022/05/19 06:15:21;;;;;;;4.72;1.50;;;;;;;23.68;25.35;99316.56;5436141;26;20106;-76
2022/05/19 06:17:48;;;;;;;6.45;1.40;;;;;;;23.67;26.19;99314.87;5436421;26;20370;-77
2022/05/19 06:20:16;;;;;;;4.62;1.50;;;;;;;23.23;26.71;99310.31;5434868;26;20065;-77
2022/05/19 06:22:44;;;;;;;3.75;1.70;;;;;;;23.29;27.24;99308.06;5436136;26;20111;-76
2022/05/19 06:25:16;;;;;;;2.85;1.33;;;;;;;23.46;27.77;99306.78;5436637;26;20075;-77
2022/05/19 06:27:44;;;;;;;4.20;1.20;;;;;;;23.55;27.16;99305.25;5436600;26;20130;-76
2022/05/19 06:30:12;;;;;;;4.20;1.10;;;;;;;23.12;26.78;99303.22;5435951;26;20106;-76
2022/05/19 06:32:43;;;;;;;2.67;1.20;;;;;;;22.97;27.48;99307.84;5436444;26;20063;-77
2022/05/19 06:35:12;;;;;;;3.75;1.20;;;;;;;23.49;27.53;99303.06;5436701;26;20065;-77
2022/05/19 06:37:39;;;;;;;3.83;1.40;;;;;;;23.38;26.24;99315.25;5436058;26;20409;-77
2022/05/19 06:40:09;;;;;;;2.05;1.10;;;;;;;23.20;27.21;99302.66;5436400;26;20068;-76
2022/05/19 06:42:37;;;;;;;3.67;1.10;;;;;;;23.13;26.92;99302.25;5435542;26;20193;-76
2022/05/19 06:45:05;;;;;;;3.28;1.20;;;;;;;23.41;27.17;99303.66;5436762;26;20038;-76
2022/05/19 06:47:32;;;;;;;6.05;1.10;;;;;;;22.97;28.15;99307.84;5436532;26;20075;-76
2022/05/19 06:49:59;;;;;;;4.18;1.15;;;;;;;23.40;27.67;99307.25;5436914;26;20065;-77
2022/05/19 06:52:29;;;;;;;4.18;1.08;;;;;;;23.46;26.82;99313.84;5437071;26;20113;-76
2022/05/19 06:54:59;;;;;;;5.22;1.10;;;;;;;23.36;26.93;99314.53;5436606;26;20103;-76
2022/05/19 06:57:27;;;;;;;6.25;1.30;;;;;;;23.06;26.66;99312.38;5435941;26;20114;-76
2022/05/19 06:59:54;;;;;;;4.68;1.00;;;;;;;23.21;25.63;99307.78;5436550;26;20074;-76
2022/05/19 07:02:23;;;;;;;7.22;1.20;;;;;;;23.29;26.38;99313.34;5416099;26;20476;-76
2022/05/19 07:04:51;;;;;;;3.70;0.95;;;;;;;22.51;24.71;99305.03;5436093;26;20062;-76
2022/05/19 07:07:18;;;;;;;4.75;1.30;;;;;;;23.53;26.22;99310.62;5415951;26;20075;-76
2022/05/19 07:09:46;;;;;;;4.35;1.12;;;;;;;23.63;25.15;99305.53;5436597;26;20055;-76
2022/05/19 07:12:20;;;;;;;5.45;1.10;;;;;;;23.10;23.58;99315.66;5435867;26;20051;-77
2022/05/19 07:14:47;;;;;;;4.53;1.12;;;;;;;22.64;24.41;99311.06;5436446;26;20079;-76
2022/05/19 07:17:14;;;;;;;6.22;1.30;;;;;;;23.03;24.78;99312.63;5436293;26;20069;-76
2022/05/19 07:22:27;;;;;;;3.37;1.25;;;;;;;22.80;24.08;99300.28;5436343;26;20133;-76
2022/05/19 07:24:54;;;;;;;4.05;1.10;;;;;;;23.08;23.48;99299.97;5437281;26;20078;-76
2022/05/19 07:27:21;;;;;;;3.80;1.37;;;;;;;23.12;23.35;99302.38;5437473;26;20358;-77
2022/05/19 07:29:48;;;;;;;2.55;1.02;;;;;;;23.68;22.52;99298.09;5437333;26;20059;-77
2022/05/19 07:32:20;;;;;;;2.97;1.02;;;;;;;23.65;21.73;99307.09;5437173;26;20047;-77
2022/05/19 07:34:48;;;;;;;3.35;0.90;;;;;;;23.75;20.93;99296.69;5437452;26;20350;-77
2022/05/19 07:37:16;;;;;;;2.53;1.00;;;;;;;23.39;21.59;99292.37;5437522;26;20122;-76
2022/05/19 07:39:43;;;;;;;4.82;1.20;;;;;;;23.08;20.92;99297.34;5437277;26;20103;-76
2022/05/19 07:42:10;;;;;;;3.00;1.20;;;;;;;22.66;22.19;99306.56;5437474;26;20048;-76
2022/05/19 07:44:37;;;;;;;4.22;1.25;;;;;;;22.90;21.23;99297.88;5416898;26;20480;-76
2022/05/19 07:47:04;;;;;;;2.70;0.90;;;;;;;22.68;21.66;99309.91;5437018;26;20055;-77
2022/05/19 07:49:31;;;;;;;2.33;1.05;;;;;;;23.20;20.25;99308.75;5437238;26;20055;-75
2022/05/19 07:51:57;;;;;;;5.53;1.00;;;;;;;23.03;20.23;99302.09;5437526;26;20106;-76
2022/05/19 07:54:30;;;;;;;1.48;0.90;;;;;;;23.21;20.95;99315.69;5416908;26;20107;-77
2022/05/19 07:56:57;;;;;;;4.12;1.05;;;;;;;23.23;18.43;99308.53;5437527;26;20118;-76
2022/05/19 07:59:24;;;;;;;2.60;0.98;;;;;;;22.57;19.63;99319.53;5416913;26;20137;-76
2022/05/19 08:01:52;;;;;;;4.57;1.20;;;;;;;22.83;19.84;99317.63;5437150;26;20172;-76
2022/05/19 08:04:23;;;;;;;3.62;0.90;;;;;;;23.09;19.99;99312.19;5437351;26;20517;-76
2022/05/19 08:06:51;;;;;;;3.97;1.00;;;;;;;22.90;19.16;99318.91;5437225;26;20055;-76
2022/05/19 08:12:05;;;;;;;7.10;1.30;;;;;;;22.68;20.83;99312.56;5437280;26;20095;-76
2022/05/19 08:17:35;;;;;;;2.83;0.93;;;;;;;23.79;20.20;99313.09;5437236;26;20394;-76
2022/05/19 08:20:02;;;;;;;8.20;1.40;;;;;;;24.01;18.86;99325.44;5437349;26;20114;-76
2022/05/19 08:22:29;;;;;;;1.37;0.90;;;;;;;23.41;20.17;99323.91;5436906;26;20427;-77
2022/05/19 08:24:56;;;;;;;2.65;1.00;;;;;;;24.14;18.82;99326.19;5437352;26;20397;-77
2022/05/19 08:27:23;;;;;;;2.65;1.10;;;;;;;23.55;19.15;99327.16;5437312;26;20119;-77
2022/05/19 08:29:50;;;;;;;1.50;0.80;;;;;;;23.26;19.66;99328.50;5436732;26;20076;-77
2022/05/19 08:32:17;;;;;;;3.42;1.10;;;;;;;23.09;19.79;99321.88;5437204;26;20106;-77
2022/05/19 08:34:44;;;;;;;2.55;1.12;;;;;;;23.19;19.19;99311.50;5436423;26;20047;-76
2022/05/19 08:37:11;;;;;;;3.70;1.08;;;;;;;23.26;19.62;99321.44;5437137;26;20065;-78
2022/05/19 08:39:37;;;;;;;3.62;1.10;;;;;;;23.36;19.72;99319.81;5437161;26;20059;-77
2022/05/19 08:42:06;;;;;;;5.35;1.02;;;;;;;23.37;20.55;99318.00;5436779;26;20091;-77
2022/05/19 08:44:48;;;;;;;7.70;0.98;;;;;;;23.19;19.90;99324.66;5437278;26;20433;-77
2022/05/19 08:47:20;;;;;;;2.10;1.10;;;;;;;22.68;19.42;99317.81;5417294;26;20073;-77
2022/05/19 08:50:01;;;;;;;3.78;0.93;;;;;;;23.38;20.80;99323.16;5416977;26;20119;-76
2022/05/19 08:52:48;;;;;;;5.95;1.00;;;;;;;23.58;19.61;99332.22;5437237;26;20052;-76
2022/05/19 08:55:17;;;;;;;4.87;1.02;;;;;;;23.29;20.05;99333.56;5416939;26;20051;-76
2022/05/19 08:57:44;;;;;;;2.62;1.10;;;;;;;23.07;19.61;99315.84;5436670;26;20106;-76
2022/05/19 09:00:24;;;;;;;3.95;1.10;;;;;;;23.24;21.13;99326.00;5437489;26;20055;-77
2022/05/19 09:03:16;;;;;;;2.67;1.00;;;;;;;23.69;20.09;99322.66;5436649;26;20050;-78
2022/05/19 09:06:09;;;;;;;7.87;1.27;;;;;;;23.52;20.11;99322.13;5437365;26;20073;-78
2022/05/19 09:09:04;;;;;;;1.42;1.10;;;;;;;23.89;20.64;99321.97;5436936;26;20111;-76
2022/05/19 09:11:42;;;;;;;3.30;1.10;;;;;;;23.99;21.14;99312.38;5436827;26;20085;-76
2022/05/19 09:14:24;;;;;;;3.35;1.10;;;;;;;24.01;20.74;99318.38;5437309;26;20047;-77
2022/05/19 09:16:55;;;;;;;3.78;1.20;;;;;;;24.01;20.05;99309.63;5436897;26;20131;-78
2022/05/19 09:19:32;;;;;;;;;;;;;;;24.12;20.83;99309.63;5418333;26;20122;-77
2022/05/19 09:22:16;;;;;;;2.22;0.95;;;;;;;24.67;21.37;99303.47;5417089;26;20320;-78
2022/05/19 09:24:46;;;;;;;3.60;1.23;;;;;;;24.02;21.30;99311.31;5436909;26;20773;-77
2022/05/19 09:27:14;;;;;;;4.55;1.10;;;;;;;23.47;21.30;99310.25;5437321;26;20058;-77
2022/05/19 09:29:49;;;;;;;3.25;1.05;;;;;;;23.56;21.37;99302.50;5436734;26;20418;-77
2022/05/19 09:32:33;;;;;;;5.35;1.17;;;;;;;23.81;22.38;99303.25;5436698;26;20528;-78
2022/05/19 09:35:25;;;;;;;4.07;1.20;;;;;;;24.41;21.56;99299.44;5437325;26;20067;-79
2022/05/19 09:38:13;;;;;;;5.00;1.10;;;;;;;24.51;21.21;99303.03;5436782;26;20566;-77
2022/05/19 09:40:44;;;;;;;3.95;1.15;;;;;;;24.33;21.37;99286.88;5437071;26;20122;-77
2022/05/19 09:43:21;;;;;;;5.05;1.30;;;;;;;24.72;20.78;99298.66;5416651;26;20059;-77
2022/05/19 09:45:51;;;;;;;2.45;1.20;;;;;;;24.66;19.81;99288.59;5415283;26;20374;-77
2022/05/19 09:48:33;;;;;;;2.70;1.10;;;;;;;24.48;20.20;99279.53;5437049;26;20047;-77
2022/05/19 09:51:03;;;;;;;1.73;1.10;;;;;;;24.26;22.28;99279.56;5437105;26;20063;-77
2022/05/19 09:53:38;;;;;;;4.62;1.02;;;;;;;24.22;21.27;99286.84;5436640;26;20063;-77
2022/05/19 09:56:12;;;;;;;2.33;0.95;;;;;;;23.66;21.23;99292.97;5416183;26;20122;-77
2022/05/19 09:58:44;;;;;;;5.12;0.98;;;;;;;23.60;22.12;99289.94;5416276;26;20106;-76
2022/05/19 10:01:32;;;;;;;4.72;1.20;;;;;;;23.92;21.51;99285.66;5436436;26;20412;-76
2022/05/19 10:04:02;;;;;;;2.72;1.10;;;;;;;24.47;21.60;99286.63;5436978;26;20055;-77
2022/05/19 10:06:56;;;;;;;3.97;1.20;;;;;;;24.66;22.91;99278.03;5417582;26;20190;-77
2022/05/19 10:09:29;;;;;;;4.87;1.23;;;;;;;24.30;22.50;99271.25;5416565;26;20504;-76
2022/05/19 10:12:14;;;;;;;3.10;1.10;;;;;;;24.07;22.58;99269.63;5437020;26;20066;-77
2022/05/19 10:14:41;;;;;;;6.28;1.10;;;;;;;24.38;22.43;99268.03;5436598;26;20061;-77
2022/05/19 10:17:39;;;;;;;2.92;0.85;;;;;;;23.93;21.77;99263.63;5436753;26;20058;-78
2022/05/19 10:20:06;;;;;;;;;;;;;;;24.42;21.52;99254.47;5436821;26;20091;-77
2022/05/19 10:23:05;;;;;;;2.40;1.15;;;;;;;24.41;22.35;99247.53;5436758;26;20010;-77
2022/05/19 10:25:46;;;;;;;2.20;1.08;;;;;;;24.53;21.18;99256.25;5424945;26;20058;-77
2022/05/19 10:32:01;;;;;;;2.35;1.02;;;;;;;24.72;22.62;99258.22;5436837;26;20648;-77
2022/05/19 10:34:46;;;;;;;4.82;1.35;;;;;;;24.68;21.98;99251.53;5416022;26;20410;-77
2022/05/19 10:37:22;;;;;;;1.62;0.95;;;;;;;25.18;21.35;99257.91;5436758;26;20102;-77
2022/05/19 10:40:26;;;;;;;2.47;1.00;;;;;;;25.39;22.10;99242.06;5436873;26;20058;-77
2022/05/19 10:43:03;;;;;;;2.60;1.10;;;;;;;25.43;22.65;99242.66;5436153;26;20044;-77
2022/05/19 10:45:33;;;;;;;4.37;1.00;;;;;;;25.32;21.63;99233.00;5436909;26;20091;-76
2022/05/19 10:48:38;;;;;;;2.65;1.05;;;;;;;25.46;20.34;99237.09;5436412;26;20059;-76
2022/05/19 10:51:36;;;;;;;2.75;0.90;;;;;;;24.98;20.00;99227.88;5436504;26;20114;-76
2022/05/19 10:54:22;;;;;;;;;;;;;;;24.60;20.32;99224.94;5437028;26;20070;-77
2022/05/19 10:57:13;;;;;;;2.47;1.00;;;;;;;25.32;21.25;99223.28;5436364;26;19982;-78
2022/05/19 11:00:01;;;;;;;3.87;1.20;;;;;;;24.85;20.79;99218.47;5417053;26;20065;-77
2022/05/19 11:02:54;;;;;;;3.33;1.10;;;;;;;25.46;20.82;99208.87;5437373;26;20110;-77
2022/05/19 11:05:43;;;;;;;3.17;0.95;;;;;;;24.97;20.16;99213.00;5437801;26;20050;-77
2022/05/19 11:08:51;;;;;;;1.95;1.17;;;;;;;25.50;19.48;99207.63;5437668;26;20108;-77
2022/05/19 11:11:42;;;;;;;4.12;1.12;;;;;;;25.06;21.51;99206.13;5437389;26;20122;-77
2022/05/19 11:14:47;;;;;;;1.70;1.08;;;;;;;25.20;20.22;99200.56;5417260;26;20133;-77
2022/05/19 11:17:17;;;;;;;4.60;1.20;;;;;;;25.14;20.97;99197.59;5437023;26;20099;-77
2022/05/19 11:19:53;;;;;;;4.37;1.20;;;;;;;24.93;19.65;99185.19;5437572;26;20107;-77
2022/05/19 11:22:25;;;;;;;2.75;1.15;;;;;;;24.93;21.80;99181.72;5417231;26;20072;-75
2022/05/19 11:27:51;;;;;;;3.05;1.25;;;;;;;25.01;21.36;99174.84;5420220;26;20086;-77
2022/05/19 11:30:21;;;;;;;5.12;1.08;;;;;;;25.17;21.18;99169.09;5412545;26;20116;-77
2022/05/19 11:32:52;;;;;;;2.87;1.00;;;;;;;25.49;21.01;99166.34;5413313;26;20068;-77
2022/05/19 11:35:23;;;;;;;3.08;1.10;;;;;;;25.24;21.42;99174.72;5414796;26;20057;-77
2022/05/19 11:38:07;;;;;;;2.20;1.00;;;;;;;25.24;22.22;99172.06;5412866;26;20160;-76
2022/05/19 11:40:42;;;;;;;3.50;0.95;;;;;;;24.98;20.96;99168.94;5414512;26;20060;-76
2022/05/19 11:43:32;;;;;;;3.55;1.05;;;;;;;25.16;22.35;99163.94;5413262;26;20080;-76
2022/05/19 11:46:22;;;;;;;3.05;1.10;;;;;;;;;;5414172;26;20130;-76
2022/05/19 11:55:18;;;;;;;3.33;1.00;;;;;;;25.38;22.37;99153.22;5414845;26;20124;-75
2022/05/19 11:57:55;;;;;;;3.53;1.30;;;;;;;25.33;20.40;99158.06;5413211;26;20060;-75
2022/05/19 12:00:48;;;;;;;2.85;1.20;;;;;;;25.39;20.81;99154.87;5414361;26;20555;-76
2022/05/19 12:03:37;;;;;;;6.25;1.33;;;;;;;25.34;21.86;99149.19;5414377;26;20063;-76
2022/05/19 12:06:12;;;;;;;1.70;0.95;;;;;;;25.75;21.93;99150.06;5414217;26;20388;-76
2022/05/19 12:08:59;;;;;;;2.42;1.20;;;;;;;26.00;21.58;99146.06;5413972;26;20119;-76
2022/05/19 12:11:40;;;;;;;2.62;1.00;;;;;;;26.01;21.18;99145.94;5414676;26;20066;-76
2022/05/19 12:14:11;;;;;;;2.15;1.05;;;;;;;25.70;21.53;99137.22;5413948;26;20064;-76
2022/05/19 12:16:56;;;;;;;2.15;1.10;;;;;;;25.42;22.48;99137.97;5414224;26;20073;-76
2022/05/19 12:19:36;;;;;;;3.45;1.20;;;;;;;25.59;21.31;99142.59;5413779;26;20051;-76
2022/05/19 12:22:31;;;;;;;2.03;0.93;;;;;;;25.26;22.84;99133.16;5414826;26;20418;-76
2022/05/19 12:25:01;;;;;;;6.03;0.95;;;;;;;24.76;22.21;99130.31;5414695;26;20086;-76